sensor_id;sensor_type;location;lat;lon;timestamp;P1;durP1;ratioP1;P2;durP2;ratioP2
611;SDS011;293;53.888;11.464;2023-08-31T00:01:17;6.37;;;5.77;;
611;SDS011;293;53.888;11.464;2023-08-31T00:03:43;5.77;;;5.30;;
611;SDS011;293;53.888;11.464;2023-08-31T00:06:12;5.97;;;5.43;;
611;SDS011;293;53.888;11.464;2023-08-31T00:08:40;7.10;;;6.50;;
611;SDS011;293;53.888;11.464;2023-08-31T00:11:06;5.73;;;5.30;;
611;SDS011;293;53.888;11.464;2023-08-31T00:13:33;6.87;;;6.37;;
611;SDS011;293;53.888;11.464;2023-08-31T00:16:00;6.30;;;5.80;;
611;SDS011;293;53.888;11.464;2023-08-31T00:18:27;6.57;;;5.97;;
611;SDS011;293;53.888;11.464;2023-08-31T00:20:54;7.23;;;6.63;;
611;SDS011;293;53.888;11.464;2023-08-31T00:23:22;7.87;;;7.20;;
611;SDS011;293;53.888;11.464;2023-08-31T00:25:49;7.30;;;6.70;;
611;SDS011;293;53.888;11.464;2023-08-31T00:28:18;6.63;;;6.13;;
611;SDS011;293;53.888;11.464;2023-08-31T00:30:46;7.40;;;6.80;;
611;SDS011;293;53.888;11.464;2023-08-31T00:33:13;6.83;;;6.33;;
611;SDS011;293;53.888;11.464;2023-08-31T00:35:42;7.73;;;7.13;;
611;SDS011;293;53.888;11.464;2023-08-31T00:38:11;6.37;;;5.87;;
611;SDS011;293;53.888;11.464;2023-08-31T00:40:40;7.70;;;7.07;;
611;SDS011;293;53.888;11.464;2023-08-31T00:43:07;7.40;;;6.80;;
611;SDS011;293;53.888;11.464;2023-08-31T00:45:34;7.20;;;6.70;;
611;SDS011;293;53.888;11.464;2023-08-31T00:48:01;7.80;;;7.00;;
611;SDS011;293;53.888;11.464;2023-08-31T00:50:29;7.57;;;6.97;;
611;SDS011;293;53.888;11.464;2023-08-31T00:52:56;7.33;;;6.73;;
611;SDS011;293;53.888;11.464;2023-08-31T00:55:23;6.67;;;6.17;;
611;SDS011;293;53.888;11.464;2023-08-31T00:57:51;7.37;;;6.70;;
611;SDS011;293;53.888;11.464;2023-08-31T01:00:18;9.40;;;7.20;;
611;SDS011;293;53.888;11.464;2023-08-31T01:02:49;9.67;;;7.13;;
611;SDS011;293;53.888;11.464;2023-08-31T01:05:29;8.03;;;7.23;;
611;SDS011;293;53.888;11.464;2023-08-31T01:08:07;8.90;;;8.20;;
611;SDS011;293;53.888;11.464;2023-08-31T01:10:47;8.77;;;8.03;;
611;SDS011;293;53.888;11.464;2023-08-31T01:13:24;8.13;;;7.30;;
611;SDS011;293;53.888;11.464;2023-08-31T01:15:56;9.77;;;8.97;;
611;SDS011;293;53.888;11.464;2023-08-31T01:18:29;7.97;;;7.20;;
611;SDS011;293;53.888;11.464;2023-08-31T01:21:01;10.60;;;9.67;;
611;SDS011;293;53.888;11.464;2023-08-31T01:23:46;8.83;;;8.13;;
611;SDS011;293;53.888;11.464;2023-08-31T01:26:18;11.10;;;10.10;;
611;SDS011;293;53.888;11.464;2023-08-31T01:28:45;10.10;;;9.20;;
611;SDS011;293;53.888;11.464;2023-08-31T01:31:13;11.47;;;10.40;;
611;SDS011;293;53.888;11.464;2023-08-31T01:33:40;11.33;;;10.23;;
611;SDS011;293;53.888;11.464;2023-08-31T01:36:08;12.30;;;11.20;;
611;SDS011;293;53.888;11.464;2023-08-31T01:38:42;11.00;;;10.10;;
611;SDS011;293;53.888;11.464;2023-08-31T01:41:16;10.97;;;9.87;;
611;SDS011;293;53.888;11.464;2023-08-31T01:43:45;11.37;;;10.37;;
611;SDS011;293;53.888;11.464;2023-08-31T01:46:14;14.03;;;12.63;;
611;SDS011;293;53.888;11.464;2023-08-31T01:48:41;12.30;;;11.00;;
611;SDS011;293;53.888;11.464;2023-08-31T01:51:09;13.40;;;12.10;;
611;SDS011;293;53.888;11.464;2023-08-31T01:53:36;13.83;;;12.53;;
611;SDS011;293;53.888;11.464;2023-08-31T01:56:05;13.00;;;11.90;;
611;SDS011;293;53.888;11.464;2023-08-31T01:58:32;13.60;;;12.33;;
611;SDS011;293;53.888;11.464;2023-08-31T02:00:58;14.30;;;13.00;;
611;SDS011;293;53.888;11.464;2023-08-31T02:03:25;17.13;;;15.30;;
611;SDS011;293;53.888;11.464;2023-08-31T02:05:52;16.70;;;15.20;;
611;SDS011;293;53.888;11.464;2023-08-31T02:08:19;14.70;;;13.33;;
611;SDS011;293;53.888;11.464;2023-08-31T02:10:46;14.00;;;12.70;;
611;SDS011;293;53.888;11.464;2023-08-31T02:13:15;15.83;;;14.50;;
611;SDS011;293;53.888;11.464;2023-08-31T02:15:42;16.00;;;14.60;;
611;SDS011;293;53.888;11.464;2023-08-31T02:18:09;15.27;;;13.97;;
611;SDS011;293;53.888;11.464;2023-08-31T02:20:35;15.97;;;14.53;;
611;SDS011;293;53.888;11.464;2023-08-31T02:23:03;16.90;;;15.40;;
611;SDS011;293;53.888;11.464;2023-08-31T02:25:30;16.13;;;14.50;;
611;SDS011;293;53.888;11.464;2023-08-31T02:27:57;17.87;;;16.27;;
611;SDS011;293;53.888;11.464;2023-08-31T02:30:25;15.37;;;14.00;;
611;SDS011;293;53.888;11.464;2023-08-31T02:32:52;18.57;;;16.87;;
611;SDS011;293;53.888;11.464;2023-08-31T02:35:19;19.40;;;17.60;;
611;SDS011;293;53.888;11.464;2023-08-31T02:37:46;17.23;;;15.67;;
611;SDS011;293;53.888;11.464;2023-08-31T02:40:13;18.40;;;16.57;;
611;SDS011;293;53.888;11.464;2023-08-31T02:42:40;18.93;;;17.13;;
611;SDS011;293;53.888;11.464;2023-08-31T02:45:07;18.60;;;16.87;;
611;SDS011;293;53.888;11.464;2023-08-31T02:47:36;17.63;;;15.93;;
611;SDS011;293;53.888;11.464;2023-08-31T02:50:04;19.13;;;17.30;;
611;SDS011;293;53.888;11.464;2023-08-31T02:52:31;19.33;;;17.43;;
611;SDS011;293;53.888;11.464;2023-08-31T02:54:58;21.20;;;19.40;;
611;SDS011;293;53.888;11.464;2023-08-31T02:57:25;19.43;;;17.53;;
611;SDS011;293;53.888;11.464;2023-08-31T02:59:52;18.90;;;17.10;;
611;SDS011;293;53.888;11.464;2023-08-31T03:02:19;17.63;;;15.93;;
611;SDS011;293;53.888;11.464;2023-08-31T03:04:48;19.50;;;17.50;;
611;SDS011;293;53.888;11.464;2023-08-31T03:07:15;17.53;;;15.73;;
611;SDS011;293;53.888;11.464;2023-08-31T03:09:43;20.20;;;18.10;;
611;SDS011;293;53.888;11.464;2023-08-31T03:12:14;21.97;;;19.97;;
611;SDS011;293;53.888;11.464;2023-08-31T03:14:41;19.73;;;17.73;;
611;SDS011;293;53.888;11.464;2023-08-31T03:17:08;20.93;;;18.87;;
611;SDS011;293;53.888;11.464;2023-08-31T03:19:35;22.90;;;20.50;;
611;SDS011;293;53.888;11.464;2023-08-31T03:22:03;20.50;;;18.40;;
611;SDS011;293;53.888;11.464;2023-08-31T03:24:31;22.80;;;20.50;;
611;SDS011;293;53.888;11.464;2023-08-31T03:26:58;22.80;;;20.50;;
611;SDS011;293;53.888;11.464;2023-08-31T03:29:25;24.90;;;22.50;;
611;SDS011;293;53.888;11.464;2023-08-31T03:31:53;24.70;;;21.87;;
611;SDS011;293;53.888;11.464;2023-08-31T03:34:20;24.50;;;22.10;;
611;SDS011;293;53.888;11.464;2023-08-31T03:36:47;24.17;;;21.77;;
611;SDS011;293;53.888;11.464;2023-08-31T03:39:16;23.37;;;20.93;;
611;SDS011;293;53.888;11.464;2023-08-31T03:41:43;23.90;;;21.57;;
611;SDS011;293;53.888;11.464;2023-08-31T03:44:10;22.07;;;19.83;;
611;SDS011;293;53.888;11.464;2023-08-31T03:46:37;25.93;;;23.33;;
611;SDS011;293;53.888;11.464;2023-08-31T03:49:04;23.10;;;20.53;;
611;SDS011;293;53.888;11.464;2023-08-31T03:51:31;24.23;;;21.80;;
611;SDS011;293;53.888;11.464;2023-08-31T03:53:57;24.80;;;22.20;;
611;SDS011;293;53.888;11.464;2023-08-31T03:56:26;23.20;;;20.80;;
611;SDS011;293;53.888;11.464;2023-08-31T03:58:52;22.60;;;20.30;;
611;SDS011;293;53.888;11.464;2023-08-31T04:01:19;26.10;;;23.30;;
611;SDS011;293;53.888;11.464;2023-08-31T04:03:46;22.77;;;20.63;;
611;SDS011;293;53.888;11.464;2023-08-31T04:06:13;26.00;;;22.43;;
611;SDS011;293;53.888;11.464;2023-08-31T04:08:40;24.67;;;22.23;;
611;SDS011;293;53.888;11.464;2023-08-31T04:11:07;25.03;;;22.73;;
611;SDS011;293;53.888;11.464;2023-08-31T04:13:35;23.10;;;20.73;;
611;SDS011;293;53.888;11.464;2023-08-31T04:16:02;26.20;;;23.50;;
611;SDS011;293;53.888;11.464;2023-08-31T04:18:29;26.30;;;23.70;;
611;SDS011;293;53.888;11.464;2023-08-31T04:20:56;25.10;;;22.60;;
611;SDS011;293;53.888;11.464;2023-08-31T04:23:24;26.43;;;23.67;;
611;SDS011;293;53.888;11.464;2023-08-31T04:25:51;25.37;;;22.53;;
611;SDS011;293;53.888;11.464;2023-08-31T04:28:18;38.10;;;34.20;;
611;SDS011;293;53.888;11.464;2023-08-31T04:30:46;38.43;;;34.53;;
611;SDS011;293;53.888;11.464;2023-08-31T04:33:14;25.40;;;22.80;;
611;SDS011;293;53.888;11.464;2023-08-31T04:35:41;25.40;;;21.77;;
611;SDS011;293;53.888;11.464;2023-08-31T04:38:08;24.07;;;21.57;;
611;SDS011;293;53.888;11.464;2023-08-31T04:40:35;23.33;;;21.03;;
611;SDS011;293;53.888;11.464;2023-08-31T04:43:02;25.30;;;22.70;;
611;SDS011;293;53.888;11.464;2023-08-31T04:45:29;24.43;;;21.33;;
611;SDS011;293;53.888;11.464;2023-08-31T04:47:58;24.33;;;20.90;;
611;SDS011;293;53.888;11.464;2023-08-31T04:50:25;27.90;;;21.67;;
611;SDS011;293;53.888;11.464;2023-08-31T04:52:52;26.47;;;23.87;;
611;SDS011;293;53.888;11.464;2023-08-31T04:55:21;26.27;;;23.47;;
611;SDS011;293;53.888;11.464;2023-08-31T04:57:48;24.83;;;22.17;;
611;SDS011;293;53.888;11.464;2023-08-31T05:00:15;24.30;;;21.80;;
611;SDS011;293;53.888;11.464;2023-08-31T05:02:42;24.20;;;21.37;;
611;SDS011;293;53.888;11.464;2023-08-31T05:05:11;22.93;;;20.53;;
611;SDS011;293;53.888;11.464;2023-08-31T05:07:38;25.27;;;20.93;;
611;SDS011;293;53.888;11.464;2023-08-31T05:10:05;25.80;;;22.43;;
611;SDS011;293;53.888;11.464;2023-08-31T05:12:33;31.87;;;22.20;;
611;SDS011;293;53.888;11.464;2023-08-31T05:15:00;26.63;;;20.90;;
611;SDS011;293;53.888;11.464;2023-08-31T05:17:27;23.70;;;21.37;;
611;SDS011;293;53.888;11.464;2023-08-31T05:19:55;25.63;;;23.03;;
611;SDS011;293;53.888;11.464;2023-08-31T05:22:23;25.50;;;21.30;;
611;SDS011;293;53.888;11.464;2023-08-31T05:24:50;22.50;;;20.20;;
611;SDS011;293;53.888;11.464;2023-08-31T05:27:17;22.27;;;20.00;;
611;SDS011;293;53.888;11.464;2023-08-31T05:29:44;27.33;;;21.57;;
611;SDS011;293;53.888;11.464;2023-08-31T05:32:11;22.60;;;20.20;;
611;SDS011;293;53.888;11.464;2023-08-31T05:34:38;20.90;;;18.70;;
611;SDS011;293;53.888;11.464;2023-08-31T05:37:05;22.27;;;19.97;;
611;SDS011;293;53.888;11.464;2023-08-31T05:39:33;20.60;;;18.50;;
611;SDS011;293;53.888;11.464;2023-08-31T05:42:01;20.77;;;18.50;;
611;SDS011;293;53.888;11.464;2023-08-31T05:44:27;22.03;;;19.83;;
611;SDS011;293;53.888;11.464;2023-08-31T05:46:54;22.43;;;19.07;;
611;SDS011;293;53.888;11.464;2023-08-31T05:49:21;20.60;;;18.60;;
611;SDS011;293;53.888;11.464;2023-08-31T05:51:49;21.27;;;19.17;;
611;SDS011;293;53.888;11.464;2023-08-31T05:54:16;21.50;;;18.17;;
611;SDS011;293;53.888;11.464;2023-08-31T05:56:44;22.00;;;19.83;;
611;SDS011;293;53.888;11.464;2023-08-31T05:59:12;21.03;;;18.90;;
611;SDS011;293;53.888;11.464;2023-08-31T06:01:39;17.57;;;15.83;;
611;SDS011;293;53.888;11.464;2023-08-31T06:04:06;23.30;;;18.47;;
611;SDS011;293;53.888;11.464;2023-08-31T06:06:33;23.40;;;21.10;;
611;SDS011;293;53.888;11.464;2023-08-31T06:09:00;17.10;;;15.53;;
611;SDS011;293;53.888;11.464;2023-08-31T06:11:27;16.00;;;14.57;;
611;SDS011;293;53.888;11.464;2023-08-31T06:13:56;14.67;;;13.27;;
611;SDS011;293;53.888;11.464;2023-08-31T06:16:22;15.77;;;14.37;;
611;SDS011;293;53.888;11.464;2023-08-31T06:18:50;12.83;;;11.37;;
611;SDS011;293;53.888;11.464;2023-08-31T06:21:16;13.87;;;12.40;;
611;SDS011;293;53.888;11.464;2023-08-31T06:23:43;10.60;;;9.70;;
611;SDS011;293;53.888;11.464;2023-08-31T06:26:10;10.50;;;9.27;;
611;SDS011;293;53.888;11.464;2023-08-31T06:28:37;10.77;;;9.77;;
611;SDS011;293;53.888;11.464;2023-08-31T06:31:05;28.70;;;25.80;;
611;SDS011;293;53.888;11.464;2023-08-31T06:33:32;22.27;;;20.20;;
611;SDS011;293;53.888;11.464;2023-08-31T06:35:59;10.70;;;9.90;;
611;SDS011;293;53.888;11.464;2023-08-31T06:38:26;10.20;;;9.40;;
611;SDS011;293;53.888;11.464;2023-08-31T06:40:53;10.87;;;9.87;;
611;SDS011;293;53.888;11.464;2023-08-31T06:43:23;9.97;;;9.17;;
611;SDS011;293;53.888;11.464;2023-08-31T06:45:51;8.90;;;8.30;;
611;SDS011;293;53.888;11.464;2023-08-31T06:48:19;11.47;;;10.53;;
611;SDS011;293;53.888;11.464;2023-08-31T06:50:46;9.07;;;8.20;;
611;SDS011;293;53.888;11.464;2023-08-31T06:53:13;10.23;;;9.17;;
611;SDS011;293;53.888;11.464;2023-08-31T06:55:40;9.80;;;8.90;;
611;SDS011;293;53.888;11.464;2023-08-31T06:58:07;10.13;;;8.50;;
611;SDS011;293;53.888;11.464;2023-08-31T07:00:34;8.23;;;7.43;;
611;SDS011;293;53.888;11.464;2023-08-31T07:03:01;8.37;;;7.67;;
611;SDS011;293;53.888;11.464;2023-08-31T07:05:32;7.97;;;7.27;;
611;SDS011;293;53.888;11.464;2023-08-31T07:08:01;7.97;;;7.20;;
611;SDS011;293;53.888;11.464;2023-08-31T07:10:28;6.90;;;6.50;;
611;SDS011;293;53.888;11.464;2023-08-31T07:12:55;7.00;;;6.40;;
611;SDS011;293;53.888;11.464;2023-08-31T07:15:22;6.50;;;5.87;;
611;SDS011;293;53.888;11.464;2023-08-31T07:17:49;7.67;;;5.80;;
611;SDS011;293;53.888;11.464;2023-08-31T07:20:16;5.47;;;5.07;;
611;SDS011;293;53.888;11.464;2023-08-31T07:22:44;9.03;;;4.60;;
611;SDS011;293;53.888;11.464;2023-08-31T07:25:11;5.77;;;5.30;;
611;SDS011;293;53.888;11.464;2023-08-31T07:27:38;6.10;;;4.60;;
611;SDS011;293;53.888;11.464;2023-08-31T07:30:05;7.30;;;4.27;;
611;SDS011;293;53.888;11.464;2023-08-31T07:32:32;4.33;;;4.03;;
611;SDS011;293;53.888;11.464;2023-08-31T07:34:59;4.17;;;3.80;;
611;SDS011;293;53.888;11.464;2023-08-31T07:37:26;6.73;;;3.80;;
611;SDS011;293;53.888;11.464;2023-08-31T07:39:55;6.60;;;3.73;;
611;SDS011;293;53.888;11.464;2023-08-31T07:42:21;5.53;;;3.20;;
611;SDS011;293;53.888;11.464;2023-08-31T07:44:48;3.80;;;3.50;;
611;SDS011;293;53.888;11.464;2023-08-31T07:47:16;4.77;;;3.50;;
611;SDS011;293;53.888;11.464;2023-08-31T07:49:42;4.90;;;2.83;;
611;SDS011;293;53.888;11.464;2023-08-31T07:52:09;4.60;;;3.80;;
611;SDS011;293;53.888;11.464;2023-08-31T07:54:36;3.60;;;2.80;;
611;SDS011;293;53.888;11.464;2023-08-31T07:57:05;3.00;;;2.53;;
611;SDS011;293;53.888;11.464;2023-08-31T07:59:31;4.23;;;2.27;;
611;SDS011;293;53.888;11.464;2023-08-31T08:01:58;2.70;;;2.00;;
611;SDS011;293;53.888;11.464;2023-08-31T08:04:25;2.27;;;2.07;;
611;SDS011;293;53.888;11.464;2023-08-31T08:06:52;3.60;;;2.00;;
611;SDS011;293;53.888;11.464;2023-08-31T08:09:19;1.80;;;1.70;;
611;SDS011;293;53.888;11.464;2023-08-31T08:11:46;3.03;;;1.70;;
611;SDS011;293;53.888;11.464;2023-08-31T08:14:14;5.90;;;1.80;;
611;SDS011;293;53.888;11.464;2023-08-31T08:16:41;2.17;;;1.90;;
611;SDS011;293;53.888;11.464;2023-08-31T08:19:08;2.20;;;1.77;;
611;SDS011;293;53.888;11.464;2023-08-31T08:21:35;2.30;;;1.70;;
611;SDS011;293;53.888;11.464;2023-08-31T08:24:02;2.13;;;1.60;;
611;SDS011;293;53.888;11.464;2023-08-31T08:26:29;1.40;;;1.20;;
611;SDS011;293;53.888;11.464;2023-08-31T08:28:56;2.50;;;1.23;;
611;SDS011;293;53.888;11.464;2023-08-31T08:31:24;4.20;;;1.17;;
611;SDS011;293;53.888;11.464;2023-08-31T08:33:51;8.37;;;2.33;;
611;SDS011;293;53.888;11.464;2023-08-31T08:36:18;1.40;;;1.10;;
611;SDS011;293;53.888;11.464;2023-08-31T08:38:44;4.90;;;1.40;;
611;SDS011;293;53.888;11.464;2023-08-31T08:41:12;1.90;;;1.47;;
611;SDS011;293;53.888;11.464;2023-08-31T08:43:39;2.80;;;1.20;;
611;SDS011;293;53.888;11.464;2023-08-31T08:46:09;1.37;;;1.00;;
611;SDS011;293;53.888;11.464;2023-08-31T08:48:36;6.67;;;1.90;;
611;SDS011;293;53.888;11.464;2023-08-31T08:51:05;2.23;;;1.13;;
611;SDS011;293;53.888;11.464;2023-08-31T08:53:33;4.63;;;1.20;;
611;SDS011;293;53.888;11.464;2023-08-31T08:56:03;2.50;;;1.20;;
611;SDS011;293;53.888;11.464;2023-08-31T08:58:30;1.93;;;1.20;;
611;SDS011;293;53.888;11.464;2023-08-31T09:00:57;3.07;;;1.30;;
611;SDS011;293;53.888;11.464;2023-08-31T09:03:24;2.37;;;2.13;;
611;SDS011;293;53.888;11.464;2023-08-31T09:05:52;4.73;;;2.70;;
611;SDS011;293;53.888;11.464;2023-08-31T09:08:24;5.50;;;2.60;;
611;SDS011;293;53.888;11.464;2023-08-31T09:10:54;7.63;;;1.40;;
611;SDS011;293;53.888;11.464;2023-08-31T09:13:25;1.27;;;1.03;;
611;SDS011;293;53.888;11.464;2023-08-31T09:15:52;1.80;;;1.00;;
611;SDS011;293;53.888;11.464;2023-08-31T09:18:22;3.47;;;1.27;;
611;SDS011;293;53.888;11.464;2023-08-31T09:20:51;2.23;;;1.33;;
611;SDS011;293;53.888;11.464;2023-08-31T09:23:19;4.70;;;2.27;;
611;SDS011;293;53.888;11.464;2023-08-31T09:25:47;4.03;;;1.10;;
611;SDS011;293;53.888;11.464;2023-08-31T09:28:15;5.60;;;1.00;;
611;SDS011;293;53.888;11.464;2023-08-31T09:30:44;1.63;;;1.53;;
611;SDS011;293;53.888;11.464;2023-08-31T09:33:14;2.27;;;1.30;;
611;SDS011;293;53.888;11.464;2023-08-31T09:35:46;8.47;;;3.10;;
611;SDS011;293;53.888;11.464;2023-08-31T09:38:16;2.10;;;1.30;;
611;SDS011;293;53.888;11.464;2023-08-31T09:40:43;2.43;;;1.00;;
611;SDS011;293;53.888;11.464;2023-08-31T09:43:10;3.57;;;1.33;;
611;SDS011;293;53.888;11.464;2023-08-31T09:45:37;4.10;;;1.27;;
611;SDS011;293;53.888;11.464;2023-08-31T09:48:05;2.83;;;1.10;;
611;SDS011;293;53.888;11.464;2023-08-31T09:50:32;5.80;;;1.40;;
611;SDS011;293;53.888;11.464;2023-08-31T09:53:00;3.83;;;0.93;;
611;SDS011;293;53.888;11.464;2023-08-31T09:55:30;2.73;;;1.03;;
611;SDS011;293;53.888;11.464;2023-08-31T09:57:59;2.50;;;1.80;;
611;SDS011;293;53.888;11.464;2023-08-31T10:00:27;2.00;;;1.10;;
611;SDS011;293;53.888;11.464;2023-08-31T10:02:56;2.43;;;0.80;;
611;SDS011;293;53.888;11.464;2023-08-31T10:05:26;5.40;;;1.17;;
611;SDS011;293;53.888;11.464;2023-08-31T10:07:53;1.20;;;0.70;;
611;SDS011;293;53.888;11.464;2023-08-31T10:10:20;3.40;;;1.13;;
611;SDS011;293;53.888;11.464;2023-08-31T10:12:50;5.77;;;1.27;;
611;SDS011;293;53.888;11.464;2023-08-31T10:15:17;1.83;;;0.70;;
611;SDS011;293;53.888;11.464;2023-08-31T10:17:45;0.70;;;0.70;;
611;SDS011;293;53.888;11.464;2023-08-31T10:20:13;0.90;;;0.70;;
611;SDS011;293;53.888;11.464;2023-08-31T10:22:42;3.53;;;0.83;;
611;SDS011;293;53.888;11.464;2023-08-31T10:25:09;1.97;;;0.80;;
611;SDS011;293;53.888;11.464;2023-08-31T10:27:37;1.27;;;0.97;;
611;SDS011;293;53.888;11.464;2023-08-31T10:30:20;1.33;;;0.70;;
611;SDS011;293;53.888;11.464;2023-08-31T10:35:48;1.23;;;0.60;;
611;SDS011;293;53.888;11.464;2023-08-31T10:38:17;0.93;;;0.53;;
611;SDS011;293;53.888;11.464;2023-08-31T10:41:00;2.17;;;0.50;;
611;SDS011;293;53.888;11.464;2023-08-31T10:43:42;1.90;;;0.83;;
611;SDS011;293;53.888;11.464;2023-08-31T10:49:13;1.07;;;0.40;;
611;SDS011;293;53.888;11.464;2023-08-31T10:51:41;1.50;;;0.60;;
611;SDS011;293;53.888;11.464;2023-08-31T10:54:09;2.67;;;0.60;;
611;SDS011;293;53.888;11.464;2023-08-31T10:56:53;1.50;;;0.50;;
611;SDS011;293;53.888;11.464;2023-08-31T10:59:21;2.07;;;1.00;;
611;SDS011;293;53.888;11.464;2023-08-31T11:01:57;1.03;;;0.73;;
611;SDS011;293;53.888;11.464;2023-08-31T11:04:25;1.60;;;0.77;;
611;SDS011;293;53.888;11.464;2023-08-31T11:07:15;1.63;;;0.60;;
611;SDS011;293;53.888;11.464;2023-08-31T11:09:43;1.20;;;0.80;;
611;SDS011;293;53.888;11.464;2023-08-31T11:12:11;1.93;;;0.77;;
611;SDS011;293;53.888;11.464;2023-08-31T11:14:38;2.00;;;1.27;;
611;SDS011;293;53.888;11.464;2023-08-31T11:17:07;1.50;;;0.60;;
611;SDS011;293;53.888;11.464;2023-08-31T11:19:35;2.50;;;0.80;;
611;SDS011;293;53.888;11.464;2023-08-31T11:22:02;1.13;;;0.63;;
611;SDS011;293;53.888;11.464;2023-08-31T11:24:30;2.80;;;1.20;;
611;SDS011;293;53.888;11.464;2023-08-31T11:26:58;2.30;;;0.80;;
611;SDS011;293;53.888;11.464;2023-08-31T11:29:28;2.73;;;0.73;;
611;SDS011;293;53.888;11.464;2023-08-31T11:31:55;1.87;;;0.90;;
611;SDS011;293;53.888;11.464;2023-08-31T11:34:26;3.03;;;0.60;;
611;SDS011;293;53.888;11.464;2023-08-31T11:36:53;2.70;;;0.73;;
611;SDS011;293;53.888;11.464;2023-08-31T11:39:20;2.13;;;1.13;;
611;SDS011;293;53.888;11.464;2023-08-31T11:41:48;2.20;;;0.53;;
611;SDS011;293;53.888;11.464;2023-08-31T11:44:16;0.80;;;0.80;;
611;SDS011;293;53.888;11.464;2023-08-31T11:46:45;2.23;;;0.73;;
611;SDS011;293;53.888;11.464;2023-08-31T11:49:15;3.87;;;1.03;;
611;SDS011;293;53.888;11.464;2023-08-31T11:51:44;1.27;;;0.70;;
611;SDS011;293;53.888;11.464;2023-08-31T11:54:12;2.03;;;0.90;;
611;SDS011;293;53.888;11.464;2023-08-31T11:56:39;2.70;;;0.60;;
611;SDS011;293;53.888;11.464;2023-08-31T11:59:08;0.80;;;0.57;;
611;SDS011;293;53.888;11.464;2023-08-31T12:01:40;2.60;;;0.73;;
611;SDS011;293;53.888;11.464;2023-08-31T12:04:11;2.60;;;0.70;;
611;SDS011;293;53.888;11.464;2023-08-31T12:06:39;0.97;;;0.50;;
611;SDS011;293;53.888;11.464;2023-08-31T12:09:08;2.30;;;1.23;;
611;SDS011;293;53.888;11.464;2023-08-31T12:11:35;1.37;;;0.60;;
611;SDS011;293;53.888;11.464;2023-08-31T12:14:03;4.70;;;1.00;;
611;SDS011;293;53.888;11.464;2023-08-31T12:16:44;1.83;;;1.00;;
611;SDS011;293;53.888;11.464;2023-08-31T12:19:11;8.40;;;1.30;;
611;SDS011;293;53.888;11.464;2023-08-31T12:21:38;2.27;;;1.30;;
611;SDS011;293;53.888;11.464;2023-08-31T12:24:06;2.07;;;1.00;;
611;SDS011;293;53.888;11.464;2023-08-31T12:26:34;2.20;;;1.43;;
611;SDS011;293;53.888;11.464;2023-08-31T12:29:01;1.60;;;0.57;;
611;SDS011;293;53.888;11.464;2023-08-31T12:31:29;1.80;;;1.07;;
611;SDS011;293;53.888;11.464;2023-08-31T12:33:57;2.00;;;0.93;;
611;SDS011;293;53.888;11.464;2023-08-31T12:36:24;1.90;;;0.80;;
611;SDS011;293;53.888;11.464;2023-08-31T12:38:51;1.00;;;0.80;;
611;SDS011;293;53.888;11.464;2023-08-31T12:41:20;1.80;;;0.90;;
611;SDS011;293;53.888;11.464;2023-08-31T12:43:46;0.90;;;0.57;;
611;SDS011;293;53.888;11.464;2023-08-31T12:46:13;1.57;;;1.00;;
611;SDS011;293;53.888;11.464;2023-08-31T12:48:42;0.70;;;0.53;;
611;SDS011;293;53.888;11.464;2023-08-31T12:51:08;2.70;;;1.13;;
611;SDS011;293;53.888;11.464;2023-08-31T12:53:37;1.90;;;0.83;;
611;SDS011;293;53.888;11.464;2023-08-31T12:56:04;1.73;;;0.80;;
611;SDS011;293;53.888;11.464;2023-08-31T12:58:33;2.27;;;1.03;;
611;SDS011;293;53.888;11.464;2023-08-31T13:00:59;2.53;;;0.90;;
611;SDS011;293;53.888;11.464;2023-08-31T13:03:27;1.70;;;0.73;;
611;SDS011;293;53.888;11.464;2023-08-31T13:05:54;1.20;;;0.97;;
611;SDS011;293;53.888;11.464;2023-08-31T13:08:21;4.20;;;0.90;;
611;SDS011;293;53.888;11.464;2023-08-31T13:10:51;1.70;;;1.03;;
611;SDS011;293;53.888;11.464;2023-08-31T13:13:18;4.13;;;1.40;;
611;SDS011;293;53.888;11.464;2023-08-31T13:15:47;4.20;;;1.17;;
611;SDS011;293;53.888;11.464;2023-08-31T13:18:14;1.90;;;0.93;;
611;SDS011;293;53.888;11.464;2023-08-31T13:20:48;1.43;;;1.33;;
611;SDS011;293;53.888;11.464;2023-08-31T13:23:15;3.43;;;2.10;;
611;SDS011;293;53.888;11.464;2023-08-31T13:25:42;1.20;;;1.03;;
611;SDS011;293;53.888;11.464;2023-08-31T13:28:09;2.50;;;1.20;;
611;SDS011;293;53.888;11.464;2023-08-31T13:30:36;1.73;;;1.03;;
611;SDS011;293;53.888;11.464;2023-08-31T13:33:04;1.87;;;1.60;;
611;SDS011;293;53.888;11.464;2023-08-31T13:35:31;2.73;;;1.13;;
611;SDS011;293;53.888;11.464;2023-08-31T13:37:58;2.67;;;1.00;;
611;SDS011;293;53.888;11.464;2023-08-31T13:40:25;1.20;;;1.10;;
611;SDS011;293;53.888;11.464;2023-08-31T13:42:53;2.33;;;0.73;;
611;SDS011;293;53.888;11.464;2023-08-31T13:45:22;3.07;;;1.80;;
611;SDS011;293;53.888;11.464;2023-08-31T13:47:49;3.33;;;1.30;;
611;SDS011;293;53.888;11.464;2023-08-31T13:50:17;3.97;;;1.73;;
611;SDS011;293;53.888;11.464;2023-08-31T13:52:44;2.40;;;2.00;;
611;SDS011;293;53.888;11.464;2023-08-31T13:55:11;3.23;;;1.97;;
611;SDS011;293;53.888;11.464;2023-08-31T13:57:38;2.40;;;2.00;;
611;SDS011;293;53.888;11.464;2023-08-31T14:00:07;2.00;;;1.40;;
611;SDS011;293;53.888;11.464;2023-08-31T14:02:35;4.87;;;1.70;;
611;SDS011;293;53.888;11.464;2023-08-31T14:05:02;4.37;;;1.80;;
611;SDS011;293;53.888;11.464;2023-08-31T14:07:32;2.00;;;1.00;;
611;SDS011;293;53.888;11.464;2023-08-31T14:09:59;4.33;;;1.50;;
611;SDS011;293;53.888;11.464;2023-08-31T14:12:26;2.20;;;1.67;;
611;SDS011;293;53.888;11.464;2023-08-31T14:14:53;1.60;;;1.50;;
611;SDS011;293;53.888;11.464;2023-08-31T14:17:20;1.70;;;1.60;;
611;SDS011;293;53.888;11.464;2023-08-31T14:19:47;1.40;;;1.10;;
611;SDS011;293;53.888;11.464;2023-08-31T14:22:14;2.13;;;1.97;;
611;SDS011;293;53.888;11.464;2023-08-31T14:24:43;4.00;;;3.40;;
611;SDS011;293;53.888;11.464;2023-08-31T14:27:10;8.47;;;7.67;;
611;SDS011;293;53.888;11.464;2023-08-31T14:29:36;2.10;;;1.60;;
611;SDS011;293;53.888;11.464;2023-08-31T14:32:03;3.43;;;1.10;;
611;SDS011;293;53.888;11.464;2023-08-31T14:34:30;3.13;;;0.80;;
611;SDS011;293;53.888;11.464;2023-08-31T14:36:57;2.63;;;1.40;;
611;SDS011;293;53.888;11.464;2023-08-31T14:39:26;2.17;;;1.40;;
611;SDS011;293;53.888;11.464;2023-08-31T14:41:56;1.90;;;1.17;;
611;SDS011;293;53.888;11.464;2023-08-31T14:44:22;2.27;;;1.40;;
611;SDS011;293;53.888;11.464;2023-08-31T14:46:49;2.10;;;1.90;;
611;SDS011;293;53.888;11.464;2023-08-31T14:49:17;2.00;;;1.87;;
611;SDS011;293;53.888;11.464;2023-08-31T14:51:44;4.27;;;2.07;;
611;SDS011;293;53.888;11.464;2023-08-31T14:54:11;2.97;;;1.80;;
611;SDS011;293;53.888;11.464;2023-08-31T14:56:38;2.40;;;1.70;;
611;SDS011;293;53.888;11.464;2023-08-31T14:59:06;2.40;;;1.50;;
611;SDS011;293;53.888;11.464;2023-08-31T15:01:33;2.60;;;1.57;;
611;SDS011;293;53.888;11.464;2023-08-31T15:04:00;4.00;;;2.10;;
611;SDS011;293;53.888;11.464;2023-08-31T15:06:28;2.43;;;1.83;;
611;SDS011;293;53.888;11.464;2023-08-31T15:08:58;1.87;;;1.70;;
611;SDS011;293;53.888;11.464;2023-08-31T15:11:25;1.70;;;1.20;;
611;SDS011;293;53.888;11.464;2023-08-31T15:13:52;1.70;;;1.20;;
611;SDS011;293;53.888;11.464;2023-08-31T15:16:20;1.83;;;1.70;;
611;SDS011;293;53.888;11.464;2023-08-31T15:18:48;3.10;;;2.00;;
611;SDS011;293;53.888;11.464;2023-08-31T15:21:15;2.07;;;1.87;;
611;SDS011;293;53.888;11.464;2023-08-31T15:23:42;3.23;;;2.10;;
611;SDS011;293;53.888;11.464;2023-08-31T15:26:09;2.67;;;1.80;;
611;SDS011;293;53.888;11.464;2023-08-31T15:28:38;3.33;;;1.70;;
611;SDS011;293;53.888;11.464;2023-08-31T15:31:05;3.70;;;2.00;;